sensor_id;sensor_type;location;lat;lon;timestamp;P1;durP1;ratioP1;P2;durP2;ratioP2
20589;SDS011;10453;50.810;12.540;2023-05-10T00:03:43;5.78;;;4.07;;
20589;SDS011;10453;50.810;12.540;2023-05-10T00:08:01;4.18;;;3.78;;
20589;SDS011;10453;50.810;12.540;2023-05-10T00:12:18;5.40;;;4.00;;
20589;SDS011;10453;50.810;12.540;2023-05-10T00:16:35;6.13;;;4.22;;
20589;SDS011;10453;50.810;12.540;2023-05-10T00:20:52;5.65;;;4.15;;
20589;SDS011;10453;50.810;12.540;2023-05-10T00:25:10;4.88;;;4.45;;
20589;SDS011;10453;50.810;12.540;2023-05-10T00:29:27;9.43;;;4.43;;
20589;SDS011;10453;50.810;12.540;2023-05-10T00:33:45;6.95;;;4.30;;
20589;SDS011;10453;50.810;12.540;2023-05-10T00:38:02;7.63;;;4.03;;
20589;SDS011;10453;50.810;12.540;2023-05-10T00:42:19;4.72;;;4.00;;
20589;SDS011;10453;50.810;12.540;2023-05-10T00:46:37;5.68;;;4.05;;
20589;SDS011;10453;50.810;12.540;2023-05-10T00:50:54;5.28;;;4.47;;
20589;SDS011;10453;50.810;12.540;2023-05-10T00:55:12;4.67;;;4.27;;
20589;SDS011;10453;50.810;12.540;2023-05-10T00:59:29;5.50;;;4.47;;
20589;SDS011;10453;50.810;12.540;2023-05-10T01:03:47;5.43;;;4.53;;
20589;SDS011;10453;50.810;12.540;2023-05-10T01:08:05;5.97;;;4.57;;
20589;SDS011;10453;50.810;12.540;2023-05-10T01:12:22;6.28;;;4.60;;
20589;SDS011;10453;50.810;12.540;2023-05-10T01:16:40;6.23;;;4.37;;
20589;SDS011;10453;50.810;12.540;2023-05-10T01:21:21;7.45;;;4.70;;
20589;SDS011;10453;50.810;12.540;2023-05-10T01:26:12;6.90;;;5.47;;
20589;SDS011;10453;50.810;12.540;2023-05-10T01:40:13;6.88;;;4.88;;
20589;SDS011;10453;50.810;12.540;2023-05-10T01:45:02;8.50;;;5.05;;
20589;SDS011;10453;50.810;12.540;2023-05-10T01:49:30;6.85;;;5.20;;
20589;SDS011;10453;50.810;12.540;2023-05-10T01:58:22;5.28;;;4.75;;
20589;SDS011;10453;50.810;12.540;2023-05-10T02:02:47;6.97;;;4.75;;
20589;SDS011;10453;50.810;12.540;2023-05-10T02:07:06;5.60;;;4.50;;
20589;SDS011;10453;50.810;12.540;2023-05-10T02:11:25;5.43;;;4.70;;
20589;SDS011;10453;50.810;12.540;2023-05-10T02:15:46;6.15;;;4.38;;
20589;SDS011;10453;50.810;12.540;2023-05-10T02:20:05;5.63;;;4.70;;
20589;SDS011;10453;50.810;12.540;2023-05-10T02:24:24;5.57;;;4.68;;
20589;SDS011;10453;50.810;12.540;2023-05-10T02:28:43;7.00;;;5.20;;
20589;SDS011;10453;50.810;12.540;2023-05-10T02:33:01;7.20;;;5.15;;
20589;SDS011;10453;50.810;12.540;2023-05-10T02:37:21;7.75;;;5.10;;
20589;SDS011;10453;50.810;12.540;2023-05-10T02:41:40;6.97;;;5.50;;
20589;SDS011;10453;50.810;12.540;2023-05-10T02:45:58;6.15;;;4.78;;
20589;SDS011;10453;50.810;12.540;2023-05-10T02:50:16;8.18;;;4.97;;
20589;SDS011;10453;50.810;12.540;2023-05-10T02:54:37;6.30;;;5.03;;
20589;SDS011;10453;50.810;12.540;2023-05-10T02:59:00;7.32;;;4.95;;
20589;SDS011;10453;50.810;12.540;2023-05-10T03:03:17;7.32;;;4.85;;
20589;SDS011;10453;50.810;12.540;2023-05-10T03:07:36;6.32;;;5.18;;
20589;SDS011;10453;50.810;12.540;2023-05-10T03:11:56;5.25;;;4.75;;
20589;SDS011;10453;50.810;12.540;2023-05-10T03:16:36;6.20;;;5.00;;
20589;SDS011;10453;50.810;12.540;2023-05-10T03:21:04;7.78;;;5.28;;
20589;SDS011;10453;50.810;12.540;2023-05-10T03:25:22;6.82;;;5.25;;
20589;SDS011;10453;50.810;12.540;2023-05-10T03:29:41;7.13;;;5.13;;
20589;SDS011;10453;50.810;12.540;2023-05-10T03:34:00;8.77;;;5.05;;
20589;SDS011;10453;50.810;12.540;2023-05-10T03:38:18;9.43;;;5.10;;
20589;SDS011;10453;50.810;12.540;2023-05-10T03:42:35;8.05;;;4.80;;
20589;SDS011;10453;50.810;12.540;2023-05-10T03:46:52;8.88;;;4.93;;
20589;SDS011;10453;50.810;12.540;2023-05-10T03:51:10;6.10;;;4.82;;
20589;SDS011;10453;50.810;12.540;2023-05-10T03:55:27;5.25;;;4.72;;
20589;SDS011;10453;50.810;12.540;2023-05-10T03:59:45;5.43;;;4.53;;
20589;SDS011;10453;50.810;12.540;2023-05-10T04:04:02;6.78;;;4.78;;
20589;SDS011;10453;50.810;12.540;2023-05-10T04:08:20;10.40;;;5.22;;
20589;SDS011;10453;50.810;12.540;2023-05-10T04:12:37;8.02;;;4.70;;
20589;SDS011;10453;50.810;12.540;2023-05-10T04:16:54;7.25;;;6.00;;
20589;SDS011;10453;50.810;12.540;2023-05-10T04:21:12;7.20;;;5.03;;
20589;SDS011;10453;50.810;12.540;2023-05-10T04:25:30;8.77;;;4.63;;
20589;SDS011;10453;50.810;12.540;2023-05-10T04:29:50;7.18;;;4.65;;
20589;SDS011;10453;50.810;12.540;2023-05-10T04:34:08;6.80;;;5.40;;
20589;SDS011;10453;50.810;12.540;2023-05-10T04:38:25;6.90;;;4.72;;
20589;SDS011;10453;50.810;12.540;2023-05-10T04:42:43;6.47;;;4.53;;
20589;SDS011;10453;50.810;12.540;2023-05-10T04:47:00;7.82;;;5.03;;
20589;SDS011;10453;50.810;12.540;2023-05-10T04:51:18;6.57;;;4.53;;
20589;SDS011;10453;50.810;12.540;2023-05-10T04:55:37;8.38;;;4.93;;
20589;SDS011;10453;50.810;12.540;2023-05-10T04:59:55;10.27;;;4.70;;
20589;SDS011;10453;50.810;12.540;2023-05-10T05:04:12;7.82;;;4.80;;
20589;SDS011;10453;50.810;12.540;2023-05-10T05:08:29;7.30;;;4.30;;
20589;SDS011;10453;50.810;12.540;2023-05-10T05:12:46;9.98;;;4.88;;
20589;SDS011;10453;50.810;12.540;2023-05-10T05:17:04;7.18;;;4.75;;
20589;SDS011;10453;50.810;12.540;2023-05-10T05:21:21;39.90;;;10.95;;
20589;SDS011;10453;50.810;12.540;2023-05-10T05:25:39;6.28;;;4.70;;
20589;SDS011;10453;50.810;12.540;2023-05-10T05:29:56;6.82;;;4.15;;
20589;SDS011;10453;50.810;12.540;2023-05-10T05:34:13;6.32;;;4.20;;
20589;SDS011;10453;50.810;12.540;2023-05-10T05:38:31;4.80;;;3.67;;
20589;SDS011;10453;50.810;12.540;2023-05-10T05:42:48;6.00;;;4.13;;
20589;SDS011;10453;50.810;12.540;2023-05-10T05:47:06;7.70;;;4.03;;
20589;SDS011;10453;50.810;12.540;2023-05-10T05:51:23;6.50;;;4.03;;
20589;SDS011;10453;50.810;12.540;2023-05-10T05:55:50;7.80;;;4.10;;
20589;SDS011;10453;50.810;12.540;2023-05-10T06:00:09;6.40;;;4.28;;
20589;SDS011;10453;50.810;12.540;2023-05-10T06:04:27;9.38;;;4.00;;
20589;SDS011;10453;50.810;12.540;2023-05-10T06:08:44;4.28;;;3.85;;
20589;SDS011;10453;50.810;12.540;2023-05-10T06:13:02;5.15;;;4.05;;
20589;SDS011;10453;50.810;12.540;2023-05-10T06:17:20;6.85;;;3.80;;
20589;SDS011;10453;50.810;12.540;2023-05-10T06:21:38;6.20;;;3.85;;
20589;SDS011;10453;50.810;12.540;2023-05-10T06:25:55;7.68;;;4.28;;
20589;SDS011;10453;50.810;12.540;2023-05-10T06:30:13;5.05;;;3.95;;
20589;SDS011;10453;50.810;12.540;2023-05-10T06:34:32;5.72;;;4.00;;
20589;SDS011;10453;50.810;12.540;2023-05-10T06:38:49;6.05;;;3.88;;
20589;SDS011;10453;50.810;12.540;2023-05-10T06:43:08;5.53;;;3.67;;
20589;SDS011;10453;50.810;12.540;2023-05-10T06:47:27;6.07;;;3.97;;
20589;SDS011;10453;50.810;12.540;2023-05-10T06:51:44;4.75;;;4.25;;
20589;SDS011;10453;50.810;12.540;2023-05-10T06:56:03;6.13;;;3.80;;
20589;SDS011;10453;50.810;12.540;2023-05-10T07:00:20;4.68;;;4.28;;
20589;SDS011;10453;50.810;12.540;2023-05-10T07:04:37;8.73;;;4.20;;
20589;SDS011;10453;50.810;12.540;2023-05-10T07:08:55;5.43;;;4.35;;
20589;SDS011;10453;50.810;12.540;2023-05-10T07:13:12;6.53;;;4.38;;
20589;SDS011;10453;50.810;12.540;2023-05-10T07:17:30;8.70;;;4.57;;
20589;SDS011;10453;50.810;12.540;2023-05-10T07:21:47;5.65;;;4.95;;
20589;SDS011;10453;50.810;12.540;2023-05-10T07:26:04;8.75;;;5.00;;
20589;SDS011;10453;50.810;12.540;2023-05-10T07:30:22;5.97;;;4.63;;
20589;SDS011;10453;50.810;12.540;2023-05-10T07:34:39;5.55;;;4.95;;
20589;SDS011;10453;50.810;12.540;2023-05-10T07:38:57;7.75;;;5.38;;
20589;SDS011;10453;50.810;12.540;2023-05-10T07:43:14;11.20;;;7.07;;
20589;SDS011;10453;50.810;12.540;2023-05-10T07:47:31;11.68;;;5.35;;
20589;SDS011;10453;50.810;12.540;2023-05-10T07:51:49;9.55;;;6.80;;
20589;SDS011;10453;50.810;12.540;2023-05-10T07:56:26;11.52;;;7.65;;
20589;SDS011;10453;50.810;12.540;2023-05-10T08:00:48;10.65;;;8.38;;
20589;SDS011;10453;50.810;12.540;2023-05-10T08:05:06;10.23;;;8.88;;
20589;SDS011;10453;50.810;12.540;2023-05-10T08:09:23;9.93;;;8.88;;
20589;SDS011;10453;50.810;12.540;2023-05-10T08:13:41;12.48;;;9.27;;
20589;SDS011;10453;50.810;12.540;2023-05-10T08:17:58;12.10;;;10.35;;
20589;SDS011;10453;50.810;12.540;2023-05-10T08:22:15;13.73;;;11.75;;
20589;SDS011;10453;50.810;12.540;2023-05-10T08:26:33;15.13;;;11.23;;
20589;SDS011;10453;50.810;12.540;2023-05-10T08:30:50;14.98;;;11.02;;
20589;SDS011;10453;50.810;12.540;2023-05-10T08:35:07;14.82;;;11.75;;
20589;SDS011;10453;50.810;12.540;2023-05-10T08:39:25;14.95;;;12.73;;
20589;SDS011;10453;50.810;12.540;2023-05-10T08:43:46;25.90;;;22.80;;
20589;SDS011;10453;50.810;12.540;2023-05-10T08:48:07;14.32;;;11.88;;
20589;SDS011;10453;50.810;12.540;2023-05-10T08:52:25;12.50;;;11.02;;
20589;SDS011;10453;50.810;12.540;2023-05-10T08:56:44;17.98;;;15.25;;
20589;SDS011;10453;50.810;12.540;2023-05-10T09:01:05;15.48;;;13.00;;
20589;SDS011;10453;50.810;12.540;2023-05-10T09:05:23;14.90;;;11.73;;
20589;SDS011;10453;50.810;12.540;2023-05-10T09:09:40;13.85;;;12.00;;
20589;SDS011;10453;50.810;12.540;2023-05-10T09:13:57;13.43;;;11.13;;
20589;SDS011;10453;50.810;12.540;2023-05-10T09:22:34;14.43;;;11.48;;
20589;SDS011;10453;50.810;12.540;2023-05-10T09:26:51;18.70;;;13.75;;
20589;SDS011;10453;50.810;12.540;2023-05-10T09:31:09;14.07;;;10.75;;
20589;SDS011;10453;50.810;12.540;2023-05-10T09:35:27;12.38;;;10.70;;
20589;SDS011;10453;50.810;12.540;2023-05-10T09:39:46;13.13;;;10.40;;
20589;SDS011;10453;50.810;12.540;2023-05-10T09:44:03;12.23;;;10.00;;
20589;SDS011;10453;50.810;12.540;2023-05-10T09:48:21;10.60;;;9.50;;
20589;SDS011;10453;50.810;12.540;2023-05-10T09:52:53;9.75;;;8.75;;
20589;SDS011;10453;50.810;12.540;2023-05-10T09:57:18;9.40;;;8.40;;
20589;SDS011;10453;50.810;12.540;2023-05-10T10:01:38;15.82;;;10.32;;
20589;SDS011;10453;50.810;12.540;2023-05-10T10:05:56;9.77;;;8.87;;
20589;SDS011;10453;50.810;12.540;2023-05-10T10:10:14;11.15;;;9.23;;
20589;SDS011;10453;50.810;12.540;2023-05-10T10:14:32;9.97;;;8.37;;
20589;SDS011;10453;50.810;12.540;2023-05-10T10:18:50;8.57;;;7.57;;
20589;SDS011;10453;50.810;12.540;2023-05-10T10:23:08;15.10;;;8.75;;
20589;SDS011;10453;50.810;12.540;2023-05-10T10:27:34;9.23;;;8.32;;
20589;SDS011;10453;50.810;12.540;2023-05-10T10:36:45;6.90;;;5.00;;
20589;SDS011;10453;50.810;12.540;2023-05-10T10:41:10;4.68;;;4.28;;
20589;SDS011;10453;50.810;12.540;2023-05-10T10:45:43;5.22;;;4.57;;
20589;SDS011;10453;50.810;12.540;2023-05-10T10:50:06;6.57;;;4.82;;
20589;SDS011;10453;50.810;12.540;2023-05-10T10:54:27;4.63;;;4.20;;
20589;SDS011;10453;50.810;12.540;2023-05-10T10:58:48;4.85;;;4.35;;
20589;SDS011;10453;50.810;12.540;2023-05-10T11:03:14;5.72;;;4.82;;
20589;SDS011;10453;50.810;12.540;2023-05-10T11:07:35;5.47;;;4.63;;
20589;SDS011;10453;50.810;12.540;2023-05-10T11:12:08;4.95;;;4.10;;
20589;SDS011;10453;50.810;12.540;2023-05-10T11:16:25;4.07;;;3.78;;
20589;SDS011;10453;50.810;12.540;2023-05-10T11:25:16;4.40;;;4.00;;
20589;SDS011;10453;50.810;12.540;2023-05-10T11:29:33;4.10;;;3.80;;
20589;SDS011;10453;50.810;12.540;2023-05-10T11:33:52;4.45;;;4.05;;
20589;SDS011;10453;50.810;12.540;2023-05-10T11:38:14;6.05;;;4.65;;
20589;SDS011;10453;50.810;12.540;2023-05-10T11:42:32;4.78;;;4.20;;
20589;SDS011;10453;50.810;12.540;2023-05-10T11:46:50;4.63;;;3.63;;
20589;SDS011;10453;50.810;12.540;2023-05-10T11:51:08;5.70;;;4.70;;
20589;SDS011;10453;50.810;12.540;2023-05-10T11:55:27;5.28;;;4.00;;
20589;SDS011;10453;50.810;12.540;2023-05-10T11:59:47;5.47;;;4.70;;
20589;SDS011;10453;50.810;12.540;2023-05-10T12:04:04;5.13;;;4.63;;
20589;SDS011;10453;50.810;12.540;2023-05-10T12:08:26;5.00;;;4.50;;
20589;SDS011;10453;50.810;12.540;2023-05-10T12:12:45;6.03;;;5.53;;
20589;SDS011;10453;50.810;12.540;2023-05-10T12:17:06;6.15;;;5.55;;
20589;SDS011;10453;50.810;12.540;2023-05-10T12:21:29;6.03;;;5.43;;
20589;SDS011;10453;50.810;12.540;2023-05-10T12:25:47;4.90;;;4.43;;
20589;SDS011;10453;50.810;12.540;2023-05-10T12:30:04;6.50;;;5.90;;
20589;SDS011;10453;50.810;12.540;2023-05-10T12:38:59;6.38;;;5.78;;
20589;SDS011;10453;50.810;12.540;2023-05-10T12:43:20;5.00;;;4.60;;
20589;SDS011;10453;50.810;12.540;2023-05-10T12:47:37;5.28;;;4.78;;
20589;SDS011;10453;50.810;12.540;2023-05-10T12:51:57;6.05;;;5.47;;
20589;SDS011;10453;50.810;12.540;2023-05-10T12:56:15;4.28;;;3.88;;
20589;SDS011;10453;50.810;12.540;2023-05-10T13:00:32;5.72;;;5.22;;
20589;SDS011;10453;50.810;12.540;2023-05-10T13:04:50;4.57;;;4.15;;
20589;SDS011;10453;50.810;12.540;2023-05-10T13:09:07;3.90;;;3.50;;
20589;SDS011;10453;50.810;12.540;2023-05-10T13:13:24;3.38;;;2.65;;
20589;SDS011;10453;50.810;12.540;2023-05-10T13:17:42;3.60;;;3.25;;
20589;SDS011;10453;50.810;12.540;2023-05-10T13:21:59;3.33;;;3.05;;
20589;SDS011;10453;50.810;12.540;2023-05-10T13:26:17;3.35;;;3.13;;
20589;SDS011;10453;50.810;12.540;2023-05-10T13:30:34;2.40;;;2.20;;
20589;SDS011;10453;50.810;12.540;2023-05-10T13:34:51;3.97;;;2.25;;
20589;SDS011;10453;50.810;12.540;2023-05-10T13:39:09;2.08;;;1.90;;
20589;SDS011;10453;50.810;12.540;2023-05-10T13:43:26;2.03;;;1.80;;
20589;SDS011;10453;50.810;12.540;2023-05-10T13:47:45;2.50;;;2.30;;
20589;SDS011;10453;50.810;12.540;2023-05-10T13:52:02;2.00;;;1.90;;
20589;SDS011;10453;50.810;12.540;2023-05-10T13:56:23;1.38;;;1.27;;
20589;SDS011;10453;50.810;12.540;2023-05-10T14:00:41;1.65;;;1.42;;
20589;SDS011;10453;50.810;12.540;2023-05-10T14:04:58;1.67;;;1.58;;
20589;SDS011;10453;50.810;12.540;2023-05-10T14:09:15;3.40;;;1.90;;
20589;SDS011;10453;50.810;12.540;2023-05-10T14:13:33;2.38;;;1.90;;
20589;SDS011;10453;50.810;12.540;2023-05-10T14:17:51;1.50;;;1.40;;
20589;SDS011;10453;50.810;12.540;2023-05-10T14:22:08;1.00;;;0.80;;
20589;SDS011;10453;50.810;12.540;2023-05-10T14:26:26;1.63;;;1.52;;
20589;SDS011;10453;50.810;12.540;2023-05-10T14:30:44;1.80;;;1.70;;
20589;SDS011;10453;50.810;12.540;2023-05-10T14:35:01;1.30;;;1.20;;
20589;SDS011;10453;50.810;12.540;2023-05-10T14:39:19;2.33;;;2.03;;
20589;SDS011;10453;50.810;12.540;2023-05-10T14:43:37;2.63;;;1.60;;
20589;SDS011;10453;50.810;12.540;2023-05-10T14:47:54;2.40;;;2.20;;
20589;SDS011;10453;50.810;12.540;2023-05-10T14:52:11;3.05;;;2.20;;
20589;SDS011;10453;50.810;12.540;2023-05-10T14:56:29;2.30;;;2.10;;
20589;SDS011;10453;50.810;12.540;2023-05-10T15:00:46;2.80;;;2.60;;
20589;SDS011;10453;50.810;12.540;2023-05-10T15:05:04;3.13;;;2.90;;
20589;SDS011;10453;50.810;12.540;2023-05-10T15:09:21;3.10;;;2.80;;
20589;SDS011;10453;50.810;12.540;2023-05-10T15:13:39;2.70;;;2.50;;
20589;SDS011;10453;50.810;12.540;2023-05-10T15:17:56;3.15;;;2.90;;
20589;SDS011;10453;50.810;12.540;2023-05-10T15:22:13;3.70;;;2.95;;
20589;SDS011;10453;50.810;12.540;2023-05-10T15:26:31;3.42;;;2.33;;
20589;SDS011;10453;50.810;12.540;2023-05-10T15:30:49;2.83;;;2.17;;
20589;SDS011;10453;50.810;12.540;2023-05-10T15:35:07;2.40;;;2.20;;
20589;SDS011;10453;50.810;12.540;2023-05-10T15:39:27;3.67;;;3.38;;
20589;SDS011;10453;50.810;12.540;2023-05-10T15:43:44;3.55;;;3.25;;
20589;SDS011;10453;50.810;12.540;2023-05-10T15:48:01;10.30;;;8.48;;
20589;SDS011;10453;50.810;12.540;2023-05-10T15:52:19;17.58;;;14.32;;
20589;SDS011;10453;50.810;12.540;2023-05-10T15:56:37;4.80;;;4.32;;
20589;SDS011;10453;50.810;12.540;2023-05-10T16:00:55;4.25;;;3.85;;
20589;SDS011;10453;50.810;12.540;2023-05-10T16:05:13;3.50;;;3.25;;
20589;SDS011;10453;50.810;12.540;2023-05-10T16:09:31;5.00;;;4.32;;
20589;SDS011;10453;50.810;12.540;2023-05-10T16:13:49;3.78;;;3.47;;
20589;SDS011;10453;50.810;12.540;2023-05-10T16:18:08;3.47;;;2.83;;
20589;SDS011;10453;50.810;12.540;2023-05-10T16:22:26;3.43;;;3.13;;
20589;SDS011;10453;50.810;12.540;2023-05-10T16:26:45;2.40;;;2.20;;
20589;SDS011;10453;50.810;12.540;2023-05-10T16:31:03;2.42;;;2.22;;
20589;SDS011;10453;50.810;12.540;2023-05-10T16:35:21;3.25;;;2.65;;
20589;SDS011;10453;50.810;12.540;2023-05-10T16:43:57;4.32;;;1.98;;
20589;SDS011;10453;50.810;12.540;2023-05-10T16:48:15;2.50;;;2.30;;
20589;SDS011;10453;50.810;12.540;2023-05-10T16:52:33;2.08;;;1.80;;
20589;SDS011;10453;50.810;12.540;2023-05-10T16:56:51;2.97;;;2.70;;
20589;SDS011;10453;50.810;12.540;2023-05-10T17:01:09;3.05;;;2.63;;
20589;SDS011;10453;50.810;12.540;2023-05-10T17:05:26;2.83;;;2.55;;
20589;SDS011;10453;50.810;12.540;2023-05-10T17:09:45;3.60;;;3.30;;
20589;SDS011;10453;50.810;12.540;2023-05-10T17:14:02;3.38;;;3.08;;
20589;SDS011;10453;50.810;12.540;2023-05-10T17:18:20;3.88;;;2.60;;
20589;SDS011;10453;50.810;12.540;2023-05-10T17:22:38;4.03;;;2.70;;
20589;SDS011;10453;50.810;12.540;2023-05-10T17:26:56;3.88;;;3.40;;
20589;SDS011;10453;50.810;12.540;2023-05-10T17:31:15;3.38;;;3.00;;
20589;SDS011;10453;50.810;12.540;2023-05-10T17:35:33;3.67;;;3.33;;
20589;SDS011;10453;50.810;12.540;2023-05-10T17:39:52;4.45;;;3.42;;
20589;SDS011;10453;50.810;12.540;2023-05-10T17:44:09;5.30;;;4.80;;
20589;SDS011;10453;50.810;12.540;2023-05-10T17:48:30;5.82;;;4.90;;
20589;SDS011;10453;50.810;12.540;2023-05-10T17:52:47;5.72;;;4.45;;
20589;SDS011;10453;50.810;12.540;2023-05-10T17:57:05;4.82;;;3.47;;
20589;SDS011;10453;50.810;12.540;2023-05-10T18:01:25;4.43;;;3.63;;
20589;SDS011;10453;50.810;12.540;2023-05-10T18:05:42;5.40;;;4.30;;
20589;SDS011;10453;50.810;12.540;2023-05-10T18:10:02;5.25;;;4.72;;
20589;SDS011;10453;50.810;12.540;2023-05-10T18:14:19;6.65;;;5.38;;
20589;SDS011;10453;50.810;12.540;2023-05-10T18:18:56;6.00;;;4.65;;
20589;SDS011;10453;50.810;12.540;2023-05-10T18:23:14;4.97;;;4.47;;
20589;SDS011;10453;50.810;12.540;2023-05-10T18:27:33;6.72;;;5.63;;
20589;SDS011;10453;50.810;12.540;2023-05-10T18:31:50;5.18;;;4.68;;
20589;SDS011;10453;50.810;12.540;2023-05-10T18:36:08;6.38;;;4.57;;
20589;SDS011;10453;50.810;12.540;2023-05-10T18:40:26;6.65;;;5.95;;
20589;SDS011;10453;50.810;12.540;2023-05-10T18:44:44;6.43;;;5.78;;
20589;SDS011;10453;50.810;12.540;2023-05-10T18:49:06;9.27;;;6.30;;
20589;SDS011;10453;50.810;12.540;2023-05-10T18:53:25;6.75;;;6.15;;
20589;SDS011;10453;50.810;12.540;2023-05-10T18:57:44;9.75;;;6.75;;
20589;SDS011;10453;50.810;12.540;2023-05-10T19:02:01;7.35;;;6.20;;
20589;SDS011;10453;50.810;12.540;2023-05-10T19:06:19;6.20;;;5.60;;
20589;SDS011;10453;50.810;12.540;2023-05-10T19:10:36;8.10;;;6.47;;
20589;SDS011;10453;50.810;12.540;2023-05-10T19:14:54;8.35;;;7.07;;
20589;SDS011;10453;50.810;12.540;2023-05-10T19:19:12;7.57;;;6.78;;
20589;SDS011;10453;50.810;12.540;2023-05-10T19:23:30;10.07;;;8.33;;
20589;SDS011;10453;50.810;12.540;2023-05-10T19:27:49;9.77;;;7.88;;
20589;SDS011;10453;50.810;12.540;2023-05-10T19:32:09;11.32;;;8.80;;
20589;SDS011;10453;50.810;12.540;2023-05-10T19:36:27;12.13;;;9.38;;
20589;SDS011;10453;50.810;12.540;2023-05-10T19:40:46;14.02;;;11.13;;
20589;SDS011;10453;50.810;12.540;2023-05-10T19:45:06;13.18;;;10.52;;
20589;SDS011;10453;50.810;12.540;2023-05-10T19:49:24;15.18;;;11.43;;
20589;SDS011;10453;50.810;12.540;2023-05-10T19:53:42;17.48;;;12.50;;
20589;SDS011;10453;50.810;12.540;2023-05-10T19:58:01;17.73;;;13.20;;
20589;SDS011;10453;50.810;12.540;2023-05-10T20:06:37;14.35;;;10.70;;
20589;SDS011;10453;50.810;12.540;2023-05-10T20:10:54;17.25;;;13.13;;
20589;SDS011;10453;50.810;12.540;2023-05-10T20:15:15;19.63;;;14.75;;
20589;SDS011;10453;50.810;12.540;2023-05-10T20:19:35;15.20;;;12.15;;
20589;SDS011;10453;50.810;12.540;2023-05-10T20:23:53;38.92;;;26.75;;
20589;SDS011;10453;50.810;12.540;2023-05-10T20:28:11;31.77;;;21.58;;
20589;SDS011;10453;50.810;12.540;2023-05-10T20:36:47;13.68;;;11.02;;
20589;SDS011;10453;50.810;12.540;2023-05-10T20:41:05;17.23;;;11.98;;
20589;SDS011;10453;50.810;12.540;2023-05-10T20:45:23;20.27;;;13.00;;
20589;SDS011;10453;50.810;12.540;2023-05-10T20:49:41;17.52;;;12.80;;
20589;SDS011;10453;50.810;12.540;2023-05-10T20:53:58;18.65;;;13.70;;
20589;SDS011;10453;50.810;12.540;2023-05-10T20:58:18;15.40;;;12.30;;
20589;SDS011;10453;50.810;12.540;2023-05-10T21:02:36;17.27;;;13.73;;
20589;SDS011;10453;50.810;12.540;2023-05-10T21:06:53;20.60;;;15.02;;
20589;SDS011;10453;50.810;12.540;2023-05-10T21:11:12;26.90;;;16.00;;
20589;SDS011;10453;50.810;12.540;2023-05-10T21:15:29;21.42;;;14.48;;
20589;SDS011;10453;50.810;12.540;2023-05-10T21:19:47;19.25;;;14.02;;
20589;SDS011;10453;50.810;12.540;2023-05-10T21:24:04;23.13;;;15.38;;
20589;SDS011;10453;50.810;12.540;2023-05-10T21:28:22;25.70;;;15.75;;
20589;SDS011;10453;50.810;12.540;2023-05-10T21:32:40;26.00;;;16.35;;
20589;SDS011;10453;50.810;12.540;2023-05-10T21:36:58;22.83;;;16.20;;
20589;SDS011;10453;50.810;12.540;2023-05-10T21:41:15;27.42;;;15.90;;
20589;SDS011;10453;50.810;12.540;2023-05-10T21:45:33;29.50;;;18.55;;
20589;SDS011;10453;50.810;12.540;2023-05-10T21:49:52;19.85;;;14.90;;
20589;SDS011;10453;50.810;12.540;2023-05-10T21:54:09;24.23;;;14.90;;
20589;SDS011;10453;50.810;12.540;2023-05-10T21:58:26;26.77;;;16.77;;
20589;SDS011;10453;50.810;12.540;2023-05-10T22:02:44;34.50;;;20.88;;
20589;SDS011;10453;50.810;12.540;2023-05-10T22:07:02;35.13;;;22.67;;
20589;SDS011;10453;50.810;12.540;2023-05-10T22:11:19;30.00;;;20.63;;
20589;SDS011;10453;50.810;12.540;2023-05-10T22:15:37;28.75;;;20.85;;
20589;SDS011;10453;50.810;12.540;2023-05-10T22:19:55;38.13;;;22.85;;
20589;SDS011;10453;50.810;12.540;2023-05-10T22:24:12;28.55;;;18.13;;
20589;SDS011;10453;50.810;12.540;2023-05-10T22:28:29;29.02;;;18.58;;
20589;SDS011;10453;50.810;12.540;2023-05-10T22:32:46;31.33;;;19.70;;
20589;SDS011;10453;50.810;12.540;2023-05-10T22:37:04;25.75;;;16.13;;
20589;SDS011;10453;50.810;12.540;2023-05-10T22:41:21;48.90;;;23.42;;
20589;SDS011;10453;50.810;12.540;2023-05-10T22:45:39;21.52;;;12.48;;
20589;SDS011;10453;50.810;12.540;2023-05-10T22:49:56;21.27;;;10.77;;
20589;SDS011;10453;50.810;12.540;2023-05-10T22:54:14;20.13;;;7.95;;
20589;SDS011;10453;50.810;12.540;2023-05-10T22:58:31;30.75;;;20.35;;
20589;SDS011;10453;50.810;12.540;2023-05-10T23:02:49;38.23;;;23.53;;
20589;SDS011;10453;50.810;12.540;2023-05-10T23:07:07;47.13;;;24.13;;
20589;SDS011;10453;50.810;12.540;2023-05-10T23:11:24;50.70;;;28.45;;
20589;SDS011;10453;50.810;12.540;2023-05-10T23:15:41;45.30;;;26.13;;
20589;SDS011;10453;50.810;12.540;2023-05-10T23:19:59;43.90;;;26.17;;
20589;SDS011;10453;50.810;12.540;2023-05-10T23:24:16;56.15;;;29.35;;
20589;SDS011;10453;50.810;12.540;2023-05-10T23:28:33;49.55;;;28.98;;
20589;SDS011;10453;50.810;12.540;2023-05-10T23:32:51;45.55;;;27.38;;
20589;SDS011;10453;50.810;12.540;2023-05-10T23:37:08;46.95;;;27.45;;
20589;SDS011;10453;50.810;12.540;2023-05-10T23:41:25;57.50;;;31.00;;
20589;SDS011;10453;50.810;12.540;2023-05-10T23:45:42;51.22;;;28.75;;
20589;SDS011;10453;50.810;12.540;2023-05-10T23:50:11;53.30;;;28.48;;
20589;SDS011;10453;50.810;12.540;2023-05-10T23:54:29;60.22;;;30.90;;
20589;SDS011;10453;50.810;12.540;2023-05-10T23:58:46;49.63;;;28.50;;
